createdAt,value
2024-02-17T00:00:02.029Z,34.80
2024-02-17T00:02:28.717Z,36.35
2024-02-17T00:04:55.430Z,36.13
2024-02-17T00:07:22.203Z,34.22
2024-02-17T00:09:48.846Z,33.80
2024-02-17T00:12:15.625Z,36.47
2024-02-17T00:14:42.324Z,34.55
2024-02-17T00:17:08.882Z,32.25
2024-02-17T00:19:35.786Z,32.30
2024-02-17T00:22:02.504Z,34.55
2024-02-17T00:24:29.202Z,30.65
2024-02-17T00:26:55.833Z,27.13
2024-02-17T00:29:22.425Z,29.45
2024-02-17T00:31:49.351Z,25.98
2024-02-17T00:34:16.236Z,25.17
2024-02-17T00:36:43.258Z,30.67
2024-02-17T00:39:11.270Z,27.90
2024-02-17T00:41:38.124Z,30.00
2024-02-17T00:44:05.696Z,27.92
2024-02-17T00:46:32.614Z,30.50
2024-02-17T00:48:59.425Z,23.20
2024-02-17T00:51:26.158Z,28.35
2024-02-17T00:53:52.759Z,32.53
2024-02-17T00:56:22.480Z,32.70
2024-02-17T00:58:49.310Z,27.23
2024-02-17T01:01:23.200Z,32.58
2024-02-17T01:03:56.591Z,30.85
2024-02-17T01:06:24.092Z,26.08
2024-02-17T01:08:50.778Z,31.27
2024-02-17T01:11:18.824Z,26.70
2024-02-17T01:13:47.905Z,27.63
2024-02-17T01:16:14.641Z,27.45
2024-02-17T01:18:41.565Z,24.55
2024-02-17T01:21:08.294Z,25.70
2024-02-17T01:23:34.946Z,25.75
2024-02-17T01:26:01.560Z,25.95
2024-02-17T01:28:28.093Z,30.85
2024-02-17T01:30:54.784Z,27.75
2024-02-17T01:33:21.354Z,22.52
2024-02-17T01:35:47.899Z,24.85
2024-02-17T01:38:14.625Z,22.92
2024-02-17T01:40:41.949Z,20.88
2024-02-17T01:43:08.884Z,21.08
2024-02-17T01:45:35.936Z,28.15
2024-02-17T01:48:03.256Z,28.02
2024-02-17T01:50:30.273Z,24.27
2024-02-17T01:52:58.474Z,25.83
2024-02-17T01:55:25.239Z,26.23
2024-02-17T01:57:52.017Z,25.42
2024-02-17T02:00:19.668Z,21.55
2024-02-17T02:02:49.361Z,25.02
2024-02-17T02:05:16.159Z,22.30
2024-02-17T02:07:43.074Z,22.83
2024-02-17T02:10:09.807Z,25.40
2024-02-17T02:12:36.595Z,25.23
2024-02-17T02:15:07.270Z,23.70
2024-02-17T02:17:34.242Z,25.55
2024-02-17T02:20:01.030Z,21.98
2024-02-17T02:22:27.750Z,22.95
2024-02-17T02:24:57.026Z,25.60
2024-02-17T02:27:23.594Z,22.65
2024-02-17T02:29:50.162Z,24.77
2024-02-17T02:32:16.829Z,21.50
2024-02-17T02:34:43.435Z,23.02
2024-02-17T02:37:10.060Z,22.90
2024-02-17T02:39:36.920Z,21.75
2024-02-17T02:42:03.503Z,20.67
2024-02-17T02:44:30.114Z,22.45
2024-02-17T02:46:56.636Z,23.60
2024-02-17T02:49:23.423Z,20.45
2024-02-17T02:51:50.120Z,19.67
2024-02-17T02:54:18.383Z,23.95
2024-02-17T02:56:45.058Z,23.65
2024-02-17T02:59:11.829Z,25.67
2024-02-17T03:01:38.391Z,22.85
2024-02-17T03:04:05.150Z,25.75
2024-02-17T03:06:32.136Z,24.25
2024-02-17T03:08:58.744Z,23.42
2024-02-17T03:11:25.417Z,26.45
2024-02-17T03:13:52.452Z,20.35
2024-02-17T03:16:25.514Z,23.50
2024-02-17T03:18:54.921Z,21.58
2024-02-17T03:21:21.869Z,21.23
2024-02-17T03:23:48.523Z,22.15
2024-02-17T03:26:15.068Z,22.38
2024-02-17T03:28:41.602Z,19.77
2024-02-17T03:31:08.236Z,22.60
2024-02-17T03:33:35.077Z,18.25
2024-02-17T03:36:01.830Z,21.67
2024-02-17T03:38:28.454Z,22.67
2024-02-17T03:40:55.001Z,25.33
2024-02-17T03:43:21.665Z,24.90
2024-02-17T03:45:48.350Z,21.90
2024-02-17T03:48:15.624Z,18.00
2024-02-17T03:50:42.427Z,23.45
2024-02-17T03:53:09.022Z,27.33
2024-02-17T03:55:35.665Z,19.65
2024-02-17T03:58:02.202Z,28.17
2024-02-17T04:00:28.799Z,22.98
2024-02-17T04:02:55.455Z,20.08
2024-02-17T04:05:22.167Z,19.30
2024-02-17T04:07:48.939Z,20.10
2024-02-17T04:10:17.033Z,23.25
2024-02-17T04:12:43.971Z,21.95
2024-02-17T04:15:11.145Z,20.50
2024-02-17T04:17:37.839Z,18.17
2024-02-17T04:20:07.788Z,23.10
2024-02-17T04:22:34.496Z,16.95
2024-02-17T04:25:01.108Z,18.50
2024-02-17T04:27:27.762Z,20.85
2024-02-17T04:29:54.384Z,20.08
2024-02-17T04:32:21.305Z,20.98
2024-02-17T04:34:49.246Z,20.23
2024-02-17T04:37:15.994Z,23.73
2024-02-17T04:39:42.653Z,18.83
2024-02-17T04:42:09.302Z,23.42
2024-02-17T04:44:36.916Z,21.52
2024-02-17T04:47:03.555Z,24.02
2024-02-17T04:49:30.066Z,24.13
2024-02-17T04:51:56.658Z,26.08
2024-02-17T04:54:23.247Z,22.98
2024-02-17T04:56:49.828Z,24.50
2024-02-17T04:59:16.416Z,23.98
2024-02-17T05:01:46.103Z,25.25
2024-02-17T05:04:12.833Z,31.02
2024-02-17T05:06:39.439Z,26.23
2024-02-17T05:09:06.114Z,29.20
2024-02-17T05:11:32.751Z,29.00
2024-02-17T05:13:59.483Z,24.30
2024-02-17T05:16:27.642Z,29.27
2024-02-17T05:18:54.277Z,21.83
2024-02-17T05:21:20.851Z,25.13
2024-02-17T05:23:47.370Z,27.13
2024-02-17T05:26:13.971Z,24.88
2024-02-17T05:28:40.579Z,26.60
2024-02-17T05:31:24.279Z,27.05
2024-02-17T05:33:50.887Z,30.98
2024-02-17T05:36:17.563Z,26.52
2024-02-17T05:38:44.107Z,24.27
2024-02-17T05:41:10.666Z,25.15
2024-02-17T05:43:37.218Z,21.40
2024-02-17T05:46:03.897Z,26.40
2024-02-17T05:48:30.650Z,22.92
2024-02-17T05:50:57.308Z,27.05
2024-02-17T05:53:23.903Z,22.30
2024-02-17T05:55:50.666Z,23.40
2024-02-17T05:58:17.237Z,30.90
2024-02-17T06:00:43.870Z,22.38
2024-02-17T06:03:10.608Z,25.27
2024-02-17T06:05:37.168Z,26.60
2024-02-17T06:08:04.627Z,24.35
2024-02-17T06:10:31.223Z,25.08
2024-02-17T06:12:57.770Z,26.67
2024-02-17T06:15:25.349Z,25.77
2024-02-17T06:18:12.190Z,28.80
2024-02-17T06:20:58.344Z,27.73
2024-02-17T06:23:24.897Z,29.42
2024-02-17T06:25:52.560Z,30.50
2024-02-17T06:28:20.100Z,31.67
2024-02-17T06:30:46.784Z,29.63
2024-02-17T06:33:13.617Z,38.92
2024-02-17T06:35:40.597Z,31.73
2024-02-17T06:38:07.185Z,30.25
2024-02-17T06:40:33.816Z,34.95
2024-02-17T06:43:00.491Z,30.70
2024-02-17T06:45:27.039Z,35.75
2024-02-17T06:47:53.693Z,29.45
2024-02-17T06:50:25.090Z,28.35
2024-02-17T06:52:52.374Z,26.73
2024-02-17T06:55:19.402Z,28.75
2024-02-17T06:57:46.200Z,28.75
2024-02-17T07:00:13.424Z,26.65
2024-02-17T07:02:40.029Z,26.85
2024-02-17T07:05:06.789Z,26.80
2024-02-17T07:07:34.411Z,26.02
2024-02-17T07:10:05.197Z,30.25
2024-02-17T07:12:36.001Z,28.83
2024-02-17T07:15:03.117Z,25.13
2024-02-17T07:17:30.193Z,31.95
2024-02-17T07:19:56.944Z,27.17
2024-02-17T07:22:24.015Z,32.33
2024-02-17T07:24:52.598Z,28.98
2024-02-17T07:27:19.502Z,27.52
2024-02-17T07:29:46.116Z,24.48
2024-02-17T07:32:13.404Z,28.73
2024-02-17T07:34:43.087Z,28.10
2024-02-17T07:37:09.782Z,26.05
2024-02-17T07:39:37.226Z,25.52
2024-02-17T07:42:03.856Z,24.23
2024-02-17T07:44:30.398Z,27.73
2024-02-17T07:46:56.918Z,23.10
2024-02-17T07:49:23.910Z,22.27
2024-02-17T07:51:50.656Z,24.88
2024-02-17T07:54:17.248Z,24.85
2024-02-17T07:56:43.771Z,26.48
2024-02-17T07:59:10.323Z,23.60
2024-02-17T08:01:36.979Z,23.35
2024-02-17T08:04:03.744Z,28.65
2024-02-17T08:06:30.419Z,26.73
2024-02-17T08:08:57.040Z,28.52
2024-02-17T08:11:23.652Z,27.98
2024-02-17T08:13:50.497Z,28.83
2024-02-17T08:16:17.155Z,25.77
2024-02-17T08:18:44.684Z,25.75
2024-02-17T08:21:11.692Z,27.23
2024-02-17T08:23:38.406Z,23.88
2024-02-17T08:26:08.586Z,25.33
2024-02-17T08:28:35.418Z,24.52
2024-02-17T08:31:02.072Z,22.48
2024-02-17T08:33:28.769Z,21.65
2024-02-17T08:35:55.430Z,24.42
2024-02-17T08:38:21.959Z,21.25
2024-02-17T08:40:48.587Z,24.05
2024-02-17T08:43:16.108Z,21.88
2024-02-17T08:45:42.668Z,23.05
2024-02-17T08:48:09.455Z,23.77
2024-02-17T08:50:37.340Z,23.65
2024-02-17T08:53:04.520Z,27.63
2024-02-17T08:55:31.338Z,22.88
2024-02-17T08:57:57.989Z,21.73
2024-02-17T09:00:25.497Z,24.17
2024-02-17T09:02:52.139Z,22.67
2024-02-17T09:05:18.698Z,23.67
2024-02-17T09:07:45.288Z,24.20
2024-02-17T09:10:16.843Z,26.10
2024-02-17T09:12:43.877Z,23.20
2024-02-17T09:15:10.839Z,21.38
2024-02-17T09:17:37.850Z,23.42
2024-02-17T09:20:08.300Z,25.20
2024-02-17T09:22:34.989Z,24.73
2024-02-17T09:25:01.617Z,20.88
2024-02-17T09:27:28.227Z,20.38
2024-02-17T09:29:54.877Z,22.95
2024-02-17T09:32:21.448Z,23.02
2024-02-17T09:34:48.310Z,20.15
2024-02-17T09:37:14.943Z,21.15
2024-02-17T09:39:41.880Z,21.05
2024-02-17T09:42:08.880Z,16.90
2024-02-17T09:44:35.436Z,23.42
2024-02-17T09:49:35.615Z,22.42
2024-02-17T09:52:02.400Z,18.30
2024-02-17T09:54:30.134Z,18.98
2024-02-17T09:56:56.826Z,16.98
2024-02-17T09:59:23.462Z,16.65
2024-02-17T10:01:50.116Z,17.20
2024-02-17T10:04:16.924Z,17.98
2024-02-17T10:06:43.763Z,18.42
2024-02-17T10:09:18.163Z,17.77
2024-02-17T10:11:44.721Z,12.85
2024-02-17T10:14:14.061Z,18.17
2024-02-17T10:16:40.786Z,11.80
2024-02-17T10:19:08.099Z,12.15
2024-02-17T10:21:38.776Z,17.17
2024-02-17T10:24:06.409Z,12.57
2024-02-17T10:26:33.715Z,11.50
2024-02-17T10:29:00.674Z,12.90
2024-02-17T10:31:28.590Z,14.00
2024-02-17T10:33:55.364Z,20.38
2024-02-17T10:36:24.326Z,11.93
2024-02-17T10:38:51.932Z,11.73
2024-02-17T10:41:19.497Z,11.38
2024-02-17T10:43:48.158Z,12.10
2024-02-17T10:48:55.737Z,9.02
2024-02-17T10:51:23.183Z,10.25
2024-02-17T10:53:52.163Z,15.00
2024-02-17T10:56:19.897Z,8.95
2024-02-17T10:58:47.089Z,13.68
2024-02-17T11:01:17.666Z,10.27
2024-02-17T11:03:46.033Z,12.83
2024-02-17T11:06:15.335Z,11.05
2024-02-17T11:08:42.224Z,13.15
2024-02-17T11:11:22.119Z,10.75
2024-02-17T11:13:48.741Z,11.15
2024-02-17T11:16:15.340Z,12.73
2024-02-17T11:18:42.256Z,9.85
2024-02-17T11:21:09.013Z,11.93
2024-02-17T11:23:38.237Z,10.50
2024-02-17T11:41:01.341Z,10.93
2024-02-17T11:43:28.653Z,10.70
2024-02-17T11:45:58.657Z,13.00
2024-02-17T11:48:25.454Z,9.65
2024-02-17T11:51:01.884Z,10.30
2024-02-17T11:53:28.481Z,12.65
2024-02-17T11:56:00.520Z,14.85
2024-02-17T11:58:27.165Z,12.02
2024-02-17T12:00:59.956Z,14.20
2024-02-17T12:03:29.886Z,13.13
2024-02-17T12:06:02.523Z,15.35
2024-02-17T12:08:30.050Z,15.00
2024-02-17T12:10:57.141Z,17.00
2024-02-17T12:13:24.213Z,13.77
2024-02-17T12:15:51.632Z,14.75
2024-02-17T12:18:18.745Z,15.98
2024-02-17T12:20:46.968Z,13.88
2024-02-17T12:23:15.496Z,13.50
2024-02-17T12:25:42.271Z,13.73
2024-02-17T12:28:08.940Z,18.20
2024-02-17T12:30:55.046Z,13.25
2024-02-17T12:33:22.923Z,13.27
2024-02-17T12:35:50.336Z,22.48
2024-02-17T12:38:20.813Z,14.13
2024-02-17T12:40:49.055Z,15.00
2024-02-17T12:43:22.768Z,14.27
2024-02-17T12:45:49.903Z,14.50
2024-02-17T12:48:20.773Z,16.48
2024-02-17T12:50:47.954Z,17.02
2024-02-17T12:53:19.317Z,15.38
2024-02-17T12:55:46.561Z,13.63
2024-02-17T12:58:13.536Z,16.48
2024-02-17T13:00:40.689Z,13.10
2024-02-17T13:03:08.577Z,12.85
2024-02-17T13:05:35.321Z,13.80
2024-02-17T13:08:02.061Z,13.57
2024-02-17T13:10:46.958Z,14.63
2024-02-17T13:13:13.637Z,14.02
2024-02-17T13:15:40.623Z,19.17
2024-02-17T13:18:08.372Z,16.45
2024-02-17T13:20:35.151Z,15.18
2024-02-17T13:23:01.777Z,16.15
2024-02-17T13:25:28.557Z,18.90
2024-02-17T13:27:55.054Z,16.85
2024-02-17T13:30:22.293Z,15.80
2024-02-17T13:32:49.450Z,18.05
2024-02-17T13:35:17.376Z,25.75
2024-02-17T13:37:44.600Z,14.05
2024-02-17T13:42:46.673Z,11.63
2024-02-17T13:45:14.172Z,14.18
2024-02-17T13:47:41.270Z,10.68
2024-02-17T13:50:12.527Z,14.18
2024-02-17T13:52:39.237Z,17.73
2024-02-17T13:55:06.093Z,16.35
2024-02-17T13:57:34.147Z,14.20
2024-02-17T14:00:01.553Z,19.13
2024-02-17T14:05:00.005Z,19.55
2024-02-17T14:07:26.834Z,18.77
2024-02-17T14:12:20.767Z,22.17
2024-02-17T14:14:47.556Z,29.20
2024-02-17T14:29:41.820Z,20.58
2024-02-17T14:32:08.412Z,18.50
2024-02-17T14:34:35.084Z,17.45
2024-02-17T14:37:02.205Z,23.45
2024-02-17T14:39:28.957Z,26.50
2024-02-17T14:44:22.620Z,18.15
2024-02-17T14:46:49.229Z,17.35
2024-02-17T14:49:16.030Z,22.70
2024-02-17T14:51:43.503Z,21.73
2024-02-17T14:56:37.031Z,23.55
2024-02-17T14:59:03.574Z,21.02
2024-02-17T15:01:30.384Z,15.88
2024-02-17T15:03:57.151Z,19.58
2024-02-17T15:08:50.650Z,18.30
2024-02-17T15:18:44.224Z,26.73
2024-02-17T15:21:10.976Z,16.02
2024-02-17T15:28:33.711Z,22.50
2024-02-17T15:31:00.452Z,28.02
2024-02-17T15:33:28.228Z,20.88
2024-02-17T15:35:56.431Z,21.83
2024-02-17T15:38:26.000Z,28.05
2024-02-17T15:40:54.548Z,23.38
2024-02-17T15:43:24.213Z,21.00
2024-02-17T15:45:50.801Z,20.30
2024-02-17T15:48:18.067Z,28.23
2024-02-17T15:50:44.776Z,21.40
2024-02-17T15:53:12.024Z,22.50
2024-02-17T15:55:38.685Z,22.80
2024-02-17T15:58:05.355Z,22.38
2024-02-17T16:00:32.180Z,28.65
2024-02-17T16:02:58.899Z,24.70
2024-02-17T16:05:25.614Z,21.25
2024-02-17T16:07:52.374Z,19.20
2024-02-17T16:10:19.281Z,18.67
2024-02-17T16:12:47.349Z,20.20
2024-02-17T16:15:19.593Z,23.63
2024-02-17T16:17:48.775Z,22.27
2024-02-17T16:20:16.229Z,20.42
2024-02-17T16:22:43.618Z,30.33
2024-02-17T16:25:11.156Z,32.75
2024-02-17T16:27:38.312Z,27.38
2024-02-17T16:30:05.366Z,25.38
2024-02-17T16:32:32.016Z,29.38
2024-02-17T16:34:58.713Z,27.63
2024-02-17T16:37:25.608Z,31.40
2024-02-17T16:39:52.182Z,32.70
2024-02-17T16:42:18.896Z,24.60
2024-02-17T16:44:45.507Z,26.10
2024-02-17T16:47:13.414Z,30.70
2024-02-17T16:49:40.657Z,146.68
2024-02-17T16:52:07.836Z,41.20
2024-02-17T16:54:34.693Z,44.13
2024-02-17T16:57:03.589Z,50.38
2024-02-17T16:59:30.712Z,100.88
2024-02-17T17:01:57.305Z,85.88
2024-02-17T17:04:26.326Z,127.13
2024-02-17T17:06:53.022Z,83.63
2024-02-17T17:09:19.654Z,52.47
2024-02-17T17:11:46.176Z,47.95
2024-02-17T17:14:12.716Z,42.85
2024-02-17T17:16:39.440Z,39.72
2024-02-17T17:19:06.003Z,43.60
2024-02-17T17:21:32.570Z,38.88
2024-02-17T17:23:59.105Z,32.65
2024-02-17T17:26:39.388Z,42.40
2024-02-17T17:29:13.078Z,52.42
2024-02-17T17:31:39.615Z,65.70
2024-02-17T17:34:06.311Z,57.30
2024-02-17T17:36:32.966Z,163.50
2024-02-17T17:39:00.753Z,91.60
2024-02-17T17:41:29.397Z,70.20
2024-02-17T17:43:56.223Z,68.20
2024-02-17T17:46:22.755Z,72.72
2024-02-17T17:48:51.611Z,63.05
2024-02-17T17:51:18.420Z,62.53
2024-02-17T17:53:45.084Z,82.72
2024-02-17T17:56:12.885Z,69.07
2024-02-17T17:58:39.614Z,89.63
2024-02-17T18:01:06.291Z,73.63
2024-02-17T18:03:33.095Z,100.47
2024-02-17T18:05:59.722Z,112.07
2024-02-17T18:08:27.611Z,93.47
2024-02-17T18:10:54.641Z,79.70
2024-02-17T18:13:21.539Z,87.90
2024-02-17T18:15:48.238Z,97.97
2024-02-17T18:18:15.188Z,128.85
2024-02-17T18:20:41.835Z,138.65
2024-02-17T18:23:08.492Z,135.52
2024-02-17T18:25:36.453Z,145.63
2024-02-17T18:28:03.156Z,149.13
2024-02-17T18:30:29.903Z,147.65
2024-02-17T18:32:56.534Z,132.73
2024-02-17T18:35:23.098Z,126.28
2024-02-17T18:37:49.633Z,129.23
2024-02-17T18:40:16.505Z,134.77
2024-02-17T18:42:43.121Z,138.25
2024-02-17T18:45:09.837Z,119.13
2024-02-17T18:47:36.510Z,118.38
2024-02-17T18:50:03.305Z,132.40
2024-02-17T18:52:30.328Z,115.57
2024-02-17T18:54:57.415Z,160.38
2024-02-17T18:57:39.485Z,149.73
2024-02-17T19:02:34.595Z,115.47
2024-02-17T19:05:01.154Z,119.55
2024-02-17T19:07:27.698Z,139.02
2024-02-17T19:09:54.318Z,152.38
2024-02-17T19:12:20.922Z,150.05
2024-02-17T19:14:49.034Z,125.25
2024-02-17T19:17:16.359Z,130.32
2024-02-17T19:19:43.169Z,123.07
2024-02-17T19:22:09.912Z,132.27
2024-02-17T19:24:36.580Z,145.52
2024-02-17T19:27:03.278Z,132.68
2024-02-17T19:29:29.802Z,146.45
2024-02-17T19:31:56.346Z,145.38
2024-02-17T19:34:23.025Z,152.27
2024-02-17T19:36:49.780Z,176.73
2024-02-17T19:39:16.462Z,187.27
2024-02-17T19:41:43.154Z,166.40
2024-02-17T19:44:09.692Z,194.23
2024-02-17T19:46:36.296Z,146.73
2024-02-17T19:49:06.637Z,143.27
2024-02-17T19:51:33.562Z,173.63
2024-02-17T19:54:00.255Z,165.60
2024-02-17T19:56:26.760Z,157.65
2024-02-17T19:58:53.269Z,157.90
2024-02-17T20:01:23.584Z,156.40
2024-02-17T20:03:54.756Z,169.40
2024-02-17T20:06:22.769Z,141.32
2024-02-17T20:08:49.701Z,170.27
2024-02-17T20:11:16.499Z,144.10
2024-02-17T20:13:43.095Z,155.77
2024-02-17T20:16:09.854Z,146.95
2024-02-17T20:18:36.590Z,130.82
2024-02-17T20:21:06.935Z,138.55
2024-02-17T20:23:33.807Z,148.05
2024-02-17T20:26:00.407Z,131.45
2024-02-17T20:28:26.989Z,131.25
2024-02-17T20:30:53.622Z,148.85
2024-02-17T20:33:21.178Z,122.10
2024-02-17T20:35:47.892Z,148.98
2024-02-17T20:38:14.463Z,142.13
2024-02-17T20:40:41.063Z,127.45
2024-02-17T20:43:07.672Z,252.48
2024-02-17T20:45:34.490Z,178.55
2024-02-17T20:48:01.537Z,138.07
2024-02-17T20:50:28.126Z,139.50
2024-02-17T20:52:54.679Z,137.20
2024-02-17T20:55:22.489Z,126.85
2024-02-17T20:57:50.772Z,135.00
2024-02-17T21:00:17.796Z,151.82
2024-02-17T21:02:44.399Z,161.40
2024-02-17T21:05:11.235Z,124.47
2024-02-17T21:07:38.022Z,129.90
2024-02-17T21:10:05.336Z,134.32
2024-02-17T21:13:23.067Z,127.18
2024-02-17T21:15:49.694Z,126.55
2024-02-17T21:18:16.530Z,126.03
2024-02-17T21:20:43.271Z,138.95
2024-02-17T21:23:09.874Z,132.13
2024-02-17T21:25:36.574Z,135.65
2024-02-17T21:28:18.561Z,128.40
2024-02-17T21:33:12.944Z,147.93
2024-02-17T21:35:39.561Z,143.98
2024-02-17T21:38:06.095Z,131.55
2024-02-17T21:40:32.638Z,130.65
2024-02-17T21:42:59.291Z,151.48
2024-02-17T21:45:27.064Z,140.35
2024-02-17T21:47:53.696Z,149.73
2024-02-17T21:50:20.446Z,151.45
2024-02-17T21:52:47.035Z,161.35
2024-02-17T21:55:13.649Z,154.80
2024-02-17T21:57:41.092Z,168.18
2024-02-17T22:00:07.975Z,165.07
2024-02-17T22:02:34.499Z,151.48
2024-02-17T22:05:01.169Z,144.75
2024-02-17T22:07:31.571Z,137.15
2024-02-17T22:09:58.531Z,114.25
2024-02-17T22:12:25.062Z,115.57
2024-02-17T22:14:51.611Z,105.40
2024-02-17T22:17:18.147Z,98.53
2024-02-17T22:19:44.961Z,95.18
2024-02-17T22:22:11.981Z,93.40
2024-02-17T22:24:38.675Z,91.18
2024-02-17T22:27:05.305Z,89.13
2024-02-17T22:29:59.664Z,89.50
2024-02-17T22:32:26.213Z,86.80
2024-02-17T22:34:52.885Z,77.47
2024-02-17T22:37:19.434Z,80.35
2024-02-17T22:39:46.004Z,74.72
2024-02-17T22:42:12.626Z,82.55
2024-02-17T22:44:39.240Z,80.80
2024-02-17T22:47:05.916Z,83.18
2024-02-17T22:49:32.608Z,82.38
2024-02-17T22:51:59.332Z,77.38
2024-02-17T22:54:26.038Z,77.22
2024-02-17T22:56:52.606Z,76.50
2024-02-17T22:59:19.436Z,76.60
2024-02-17T23:01:46.077Z,77.05
2024-02-17T23:04:12.843Z,68.32
2024-02-17T23:06:43.498Z,68.57
2024-02-17T23:09:10.061Z,68.00
2024-02-17T23:11:37.302Z,73.28
2024-02-17T23:14:54.871Z,72.13
2024-02-17T23:17:21.458Z,64.30
2024-02-17T23:19:49.059Z,68.30
2024-02-17T23:22:15.761Z,63.35
2024-02-17T23:24:43.022Z,59.47
2024-02-17T23:27:09.584Z,64.30
2024-02-17T23:29:36.578Z,62.95
2024-02-17T23:32:03.160Z,68.57
2024-02-17T23:34:29.933Z,63.83
2024-02-17T23:36:56.599Z,63.15
2024-02-17T23:39:23.237Z,58.50
2024-02-17T23:41:49.852Z,60.17
2024-02-17T23:44:17.676Z,55.38
2024-02-17T23:46:44.255Z,59.25
2024-02-17T23:49:10.951Z,59.78
2024-02-17T23:51:37.598Z,59.10
2024-02-17T23:54:04.233Z,60.05
2024-02-17T23:56:30.759Z,60.33
2024-02-17T23:58:57.350Z,63.50
